sensor_id;sensor_type;location;lat;lon;timestamp;pressure;altitude;pressure_sealevel;temperature;humidity
47154;BME280;32907;41.412;2.164;2023-03-18T00:00:48;100350.97;;;20.10;50.74
47154;BME280;32907;41.412;2.164;2023-03-18T00:03:18;100377.06;;;20.30;50.75
47154;BME280;32907;41.412;2.164;2023-03-18T00:05:47;100391.94;;;20.38;50.53
47154;BME280;32907;41.412;2.164;2023-03-18T00:08:15;100384.03;;;20.36;50.46
47154;BME280;32907;41.412;2.164;2023-03-18T00:10:43;100364.28;;;20.31;50.65
47154;BME280;32907;41.412;2.164;2023-03-18T00:13:11;100374.25;;;20.35;50.81
47154;BME280;32907;41.412;2.164;2023-03-18T00:15:39;100344.34;;;20.17;50.79
47154;BME280;32907;41.412;2.164;2023-03-18T00:18:07;100316.63;;;19.96;50.92
47154;BME280;32907;41.412;2.164;2023-03-18T00:20:36;100372.00;;;20.24;50.71
47154;BME280;32907;41.412;2.164;2023-03-18T00:23:07;100316.09;;;19.94;51.03
47154;BME280;32907;41.412;2.164;2023-03-18T00:25:36;100377.66;;;20.27;50.90
47154;BME280;32907;41.412;2.164;2023-03-18T00:28:06;100346.69;;;20.23;51.10
47154;BME280;32907;41.412;2.164;2023-03-18T00:30:37;100292.78;;;19.88;51.12
47154;BME280;32907;41.412;2.164;2023-03-18T00:33:05;100355.06;;;20.27;51.14
47154;BME280;32907;41.412;2.164;2023-03-18T00:35:34;100362.41;;;20.26;51.14
47154;BME280;32907;41.412;2.164;2023-03-18T00:38:03;100365.16;;;20.26;51.17
47154;BME280;32907;41.412;2.164;2023-03-18T00:40:35;100358.25;;;20.15;51.28
47154;BME280;32907;41.412;2.164;2023-03-18T00:43:32;100380.38;;;20.27;51.50
47154;BME280;32907;41.412;2.164;2023-03-18T00:46:16;100317.41;;;19.96;50.89
47154;BME280;32907;41.412;2.164;2023-03-18T00:48:46;100322.06;;;19.96;50.98
47154;BME280;32907;41.412;2.164;2023-03-18T00:51:15;100348.97;;;20.16;50.98
47154;BME280;32907;41.412;2.164;2023-03-18T00:53:46;100313.91;;;19.96;50.91
47154;BME280;32907;41.412;2.164;2023-03-18T00:56:15;100308.44;;;19.96;50.96
47154;BME280;32907;41.412;2.164;2023-03-18T00:58:45;100357.47;;;20.28;51.07
47154;BME280;32907;41.412;2.164;2023-03-18T01:01:14;100343.53;;;20.16;51.02
47154;BME280;32907;41.412;2.164;2023-03-18T01:03:45;100296.31;;;19.88;51.34
47154;BME280;32907;41.412;2.164;2023-03-18T01:06:23;100351.22;;;20.28;51.36
47154;BME280;32907;41.412;2.164;2023-03-18T01:08:52;100330.34;;;20.04;51.19
47154;BME280;32907;41.412;2.164;2023-03-18T01:11:21;100355.38;;;20.25;51.16
47154;BME280;32907;41.412;2.164;2023-03-18T01:13:50;100356.97;;;20.26;51.43
47154;BME280;32907;41.412;2.164;2023-03-18T01:16:21;100301.50;;;19.90;50.94
47154;BME280;32907;41.412;2.164;2023-03-18T01:18:49;100343.53;;;20.16;50.96
47154;BME280;32907;41.412;2.164;2023-03-18T01:21:18;100347.25;;;20.20;51.13
47154;BME280;32907;41.412;2.164;2023-03-18T01:23:53;100362.28;;;20.18;51.07
47154;BME280;32907;41.412;2.164;2023-03-18T01:26:21;100342.41;;;20.17;51.40
47154;BME280;32907;41.412;2.164;2023-03-18T01:28:51;100321.31;;;20.09;51.23
47154;BME280;32907;41.412;2.164;2023-03-18T01:31:21;100314.84;;;20.05;51.22
47154;BME280;32907;41.412;2.164;2023-03-18T01:33:57;100214.50;;;19.28;51.24
47154;BME280;32907;41.412;2.164;2023-03-18T01:36:24;100341.25;;;20.23;51.49
47154;BME280;32907;41.412;2.164;2023-03-18T01:39:06;100318.09;;;20.07;51.12
47154;BME280;32907;41.412;2.164;2023-03-18T01:41:36;100333.88;;;20.24;51.24
47154;BME280;32907;41.412;2.164;2023-03-18T01:44:20;100317.91;;;20.17;50.90
47154;BME280;32907;41.412;2.164;2023-03-18T01:46:51;100316.75;;;20.23;50.62
47154;BME280;32907;41.412;2.164;2023-03-18T01:49:27;100317.25;;;20.25;50.78
47154;BME280;32907;41.412;2.164;2023-03-18T01:52:18;100311.88;;;20.20;50.65
47154;BME280;32907;41.412;2.164;2023-03-18T01:55:10;100289.84;;;20.03;50.81
47154;BME280;32907;41.412;2.164;2023-03-18T01:57:40;100277.50;;;19.92;50.71
47154;BME280;32907;41.412;2.164;2023-03-18T02:00:10;100305.41;;;20.16;50.52
47154;BME280;32907;41.412;2.164;2023-03-18T02:02:45;100275.22;;;19.99;50.77
47154;BME280;32907;41.412;2.164;2023-03-18T02:05:19;100297.31;;;20.11;50.67
47154;BME280;32907;41.412;2.164;2023-03-18T02:07:48;100282.72;;;20.07;50.63
47154;BME280;32907;41.412;2.164;2023-03-18T02:10:28;100247.66;;;19.87;50.65
47154;BME280;32907;41.412;2.164;2023-03-18T02:13:04;100228.78;;;19.76;50.32
47154;BME280;32907;41.412;2.164;2023-03-18T02:16:08;100284.22;;;20.13;50.37
47154;BME280;32907;41.412;2.164;2023-03-18T02:18:40;100275.03;;;20.09;49.90
47154;BME280;32907;41.412;2.164;2023-03-18T02:26:55;100231.13;;;19.83;49.72
47154;BME280;32907;41.412;2.164;2023-03-18T02:29:33;100233.53;;;19.84;49.87
47154;BME280;32907;41.412;2.164;2023-03-18T02:32:10;100271.00;;;20.06;49.38
47154;BME280;32907;41.412;2.164;2023-03-18T02:34:41;100272.94;;;20.06;48.88
47154;BME280;32907;41.412;2.164;2023-03-18T02:37:10;100276.72;;;20.05;48.93
47154;BME280;32907;41.412;2.164;2023-03-18T02:39:40;100270.88;;;19.98;48.50
47154;BME280;32907;41.412;2.164;2023-03-18T02:42:12;100281.38;;;20.04;48.57
47154;BME280;32907;41.412;2.164;2023-03-18T02:44:48;100270.78;;;20.03;48.34
47154;BME280;32907;41.412;2.164;2023-03-18T02:47:39;100252.59;;;19.84;47.63
47154;BME280;32907;41.412;2.164;2023-03-18T02:50:10;100271.47;;;19.95;48.07
47154;BME280;32907;41.412;2.164;2023-03-18T02:52:38;100230.63;;;19.62;47.58
47154;BME280;32907;41.412;2.164;2023-03-18T02:55:07;100263.41;;;19.90;47.50
47154;BME280;32907;41.412;2.164;2023-03-18T02:57:35;100213.28;;;19.58;47.28
47154;BME280;32907;41.412;2.164;2023-03-18T03:00:03;100241.34;;;19.72;47.05
47154;BME280;32907;41.412;2.164;2023-03-18T03:02:32;100198.28;;;19.42;47.32
47154;BME280;32907;41.412;2.164;2023-03-18T03:05:00;100269.34;;;19.92;47.30
47154;BME280;32907;41.412;2.164;2023-03-18T03:07:28;100167.38;;;19.33;47.12
47154;BME280;32907;41.412;2.164;2023-03-18T03:10:00;100266.00;;;19.95;47.09
47154;BME280;32907;41.412;2.164;2023-03-18T03:12:30;100263.91;;;19.92;46.99
47154;BME280;32907;41.412;2.164;2023-03-18T03:14:59;100245.03;;;19.81;46.83
47154;BME280;32907;41.412;2.164;2023-03-18T03:17:30;100257.94;;;19.90;46.89
47154;BME280;32907;41.412;2.164;2023-03-18T03:19:58;100264.78;;;19.87;46.46
47154;BME280;32907;41.412;2.164;2023-03-18T03:22:27;100268.03;;;19.89;46.68
47154;BME280;32907;41.412;2.164;2023-03-18T03:24:56;100268.84;;;19.90;46.34
47154;BME280;32907;41.412;2.164;2023-03-18T03:27:25;100242.44;;;19.71;45.97
47154;BME280;32907;41.412;2.164;2023-03-18T03:29:53;100238.88;;;19.57;46.19
47154;BME280;32907;41.412;2.164;2023-03-18T03:32:22;100268.53;;;19.72;46.17
47154;BME280;32907;41.412;2.164;2023-03-18T03:34:50;100265.53;;;19.74;46.57
47154;BME280;32907;41.412;2.164;2023-03-18T03:37:18;100277.06;;;19.84;46.24
47154;BME280;32907;41.412;2.164;2023-03-18T03:39:46;100269.56;;;19.76;46.31
47154;BME280;32907;41.412;2.164;2023-03-18T03:42:15;100280.91;;;19.83;45.87
47154;BME280;32907;41.412;2.164;2023-03-18T03:44:44;100240.47;;;19.58;46.46
47154;BME280;32907;41.412;2.164;2023-03-18T03:47:12;100250.69;;;19.66;46.13
47154;BME280;32907;41.412;2.164;2023-03-18T03:49:42;100242.31;;;19.63;46.14
47154;BME280;32907;41.412;2.164;2023-03-18T03:52:11;100274.84;;;19.87;46.41
47154;BME280;32907;41.412;2.164;2023-03-18T03:54:40;100230.41;;;19.59;46.49
47154;BME280;32907;41.412;2.164;2023-03-18T03:57:09;100250.22;;;19.78;46.06
47154;BME280;32907;41.412;2.164;2023-03-18T03:59:37;100252.94;;;19.78;46.05
47154;BME280;32907;41.412;2.164;2023-03-18T04:02:29;100248.81;;;19.80;46.42
47154;BME280;32907;41.412;2.164;2023-03-18T04:04:58;100226.22;;;19.66;46.28
47154;BME280;32907;41.412;2.164;2023-03-18T04:07:30;100166.38;;;19.28;46.69
47154;BME280;32907;41.412;2.164;2023-03-18T04:09:58;100180.31;;;19.41;46.48
47154;BME280;32907;41.412;2.164;2023-03-18T04:12:25;100259.94;;;19.84;47.03
47154;BME280;32907;41.412;2.164;2023-03-18T04:14:58;100236.69;;;19.73;46.79
47154;BME280;32907;41.412;2.164;2023-03-18T04:17:27;100211.69;;;19.57;46.99
47154;BME280;32907;41.412;2.164;2023-03-18T04:19:55;100176.78;;;19.40;46.91
47154;BME280;32907;41.412;2.164;2023-03-18T04:22:29;100235.31;;;19.75;46.95
47154;BME280;32907;41.412;2.164;2023-03-18T04:25:08;100250.06;;;19.88;46.84
47154;BME280;32907;41.412;2.164;2023-03-18T04:27:40;100256.31;;;19.89;46.70
47154;BME280;32907;41.412;2.164;2023-03-18T04:30:11;100258.53;;;19.87;46.50
47154;BME280;32907;41.412;2.164;2023-03-18T04:32:53;100247.00;;;19.76;46.96
47154;BME280;32907;41.412;2.164;2023-03-18T04:35:22;100252.06;;;19.82;46.94
47154;BME280;32907;41.412;2.164;2023-03-18T04:37:50;100265.38;;;19.84;47.00
47154;BME280;32907;41.412;2.164;2023-03-18T04:40:19;100258.41;;;19.78;46.92
47154;BME280;32907;41.412;2.164;2023-03-18T04:42:47;100251.28;;;19.82;47.03
47154;BME280;32907;41.412;2.164;2023-03-18T04:45:20;100238.03;;;19.75;46.46
47154;BME280;32907;41.412;2.164;2023-03-18T04:47:49;100220.53;;;19.63;46.61
47154;BME280;32907;41.412;2.164;2023-03-18T04:50:18;100248.13;;;19.75;47.05
47154;BME280;32907;41.412;2.164;2023-03-18T04:52:46;100140.81;;;18.92;46.93
47154;BME280;32907;41.412;2.164;2023-03-18T04:55:16;100257.38;;;19.74;46.68
47154;BME280;32907;41.412;2.164;2023-03-18T04:57:47;100218.63;;;19.44;46.51
47154;BME280;32907;41.412;2.164;2023-03-18T05:00:18;100254.00;;;19.63;46.70
47154;BME280;32907;41.412;2.164;2023-03-18T05:02:58;100254.44;;;19.70;46.70
47154;BME280;32907;41.412;2.164;2023-03-18T05:05:26;100249.66;;;19.62;46.79
47154;BME280;32907;41.412;2.164;2023-03-18T05:07:55;100257.44;;;19.69;46.71
47154;BME280;32907;41.412;2.164;2023-03-18T05:10:23;100260.91;;;19.74;46.56
47154;BME280;32907;41.412;2.164;2023-03-18T05:12:51;100260.91;;;19.74;46.33
47154;BME280;32907;41.412;2.164;2023-03-18T05:15:27;100262.53;;;19.75;46.64
47154;BME280;32907;41.412;2.164;2023-03-18T05:17:57;100184.59;;;19.28;46.13
47154;BME280;32907;41.412;2.164;2023-03-18T05:20:27;100258.84;;;19.66;46.48
47154;BME280;32907;41.412;2.164;2023-03-18T05:22:55;100253.69;;;19.65;46.23
47154;BME280;32907;41.412;2.164;2023-03-18T05:25:49;100229.50;;;19.44;46.35
47154;BME280;32907;41.412;2.164;2023-03-18T05:28:20;100235.94;;;19.48;46.72
47154;BME280;32907;41.412;2.164;2023-03-18T05:31:06;100252.69;;;19.61;47.00
47154;BME280;32907;41.412;2.164;2023-03-18T05:33:51;100237.81;;;19.53;47.03
47154;BME280;32907;41.412;2.164;2023-03-18T05:36:20;100262.03;;;19.73;46.59
47154;BME280;32907;41.412;2.164;2023-03-18T05:38:57;100192.00;;;19.22;46.60
47154;BME280;32907;41.412;2.164;2023-03-18T05:41:26;100281.63;;;19.70;46.56
47154;BME280;32907;41.412;2.164;2023-03-18T05:43:54;100274.56;;;19.69;46.60
47154;BME280;32907;41.412;2.164;2023-03-18T05:46:22;100263.34;;;19.57;46.16
47154;BME280;32907;41.412;2.164;2023-03-18T05:49:13;100250.16;;;19.45;46.42
47154;BME280;32907;41.412;2.164;2023-03-18T05:52:01;100286.28;;;19.70;46.00
47154;BME280;32907;41.412;2.164;2023-03-18T05:54:39;100238.97;;;19.28;45.70
47154;BME280;32907;41.412;2.164;2023-03-18T05:57:09;100307.22;;;19.69;45.80
47154;BME280;32907;41.412;2.164;2023-03-18T05:59:39;100250.06;;;19.32;45.34
47154;BME280;32907;41.412;2.164;2023-03-18T06:02:09;100149.34;;;18.61;44.86
47154;BME280;32907;41.412;2.164;2023-03-18T06:04:38;100293.59;;;19.50;45.38
47154;BME280;32907;41.412;2.164;2023-03-18T06:07:06;100301.75;;;19.50;45.01
47154;BME280;32907;41.412;2.164;2023-03-18T06:09:34;100292.50;;;19.51;45.11
47154;BME280;32907;41.412;2.164;2023-03-18T06:12:03;100304.66;;;19.59;45.86
47154;BME280;32907;41.412;2.164;2023-03-18T06:14:32;100269.53;;;19.39;46.04
47154;BME280;32907;41.412;2.164;2023-03-18T06:17:02;100303.06;;;19.53;45.60
47154;BME280;32907;41.412;2.164;2023-03-18T06:19:31;100237.78;;;19.15;45.27
47154;BME280;32907;41.412;2.164;2023-03-18T06:21:58;100294.91;;;19.53;44.93
47154;BME280;32907;41.412;2.164;2023-03-18T06:24:27;100289.97;;;19.55;45.31
47154;BME280;32907;41.412;2.164;2023-03-18T06:26:56;100290.56;;;19.57;45.28
47154;BME280;32907;41.412;2.164;2023-03-18T06:29:24;100234.69;;;19.22;44.96
47154;BME280;32907;41.412;2.164;2023-03-18T06:31:57;100299.94;;;19.65;44.88
47154;BME280;32907;41.412;2.164;2023-03-18T06:34:26;100318.91;;;19.70;45.04
47154;BME280;32907;41.412;2.164;2023-03-18T06:36:55;100273.38;;;19.38;45.06
47154;BME280;32907;41.412;2.164;2023-03-18T06:39:23;100283.81;;;19.49;45.33
47154;BME280;32907;41.412;2.164;2023-03-18T06:41:51;100283.28;;;19.47;45.25
47154;BME280;32907;41.412;2.164;2023-03-18T06:44:50;100326.72;;;19.76;45.41
47154;BME280;32907;41.412;2.164;2023-03-18T06:47:26;100310.00;;;19.64;45.63
47154;BME280;32907;41.412;2.164;2023-03-18T06:49:56;100322.00;;;19.82;45.38
47154;BME280;32907;41.412;2.164;2023-03-18T06:52:36;100326.66;;;19.81;45.15
47154;BME280;32907;41.412;2.164;2023-03-18T06:55:10;100301.63;;;19.61;44.73
47154;BME280;32907;41.412;2.164;2023-03-18T06:57:41;100344.59;;;19.82;44.74
47154;BME280;32907;41.412;2.164;2023-03-18T07:00:11;100338.09;;;19.78;44.77
47154;BME280;32907;41.412;2.164;2023-03-18T07:02:39;100321.03;;;19.73;44.40
47154;BME280;32907;41.412;2.164;2023-03-18T07:05:12;100338.03;;;19.83;44.08
47154;BME280;32907;41.412;2.164;2023-03-18T07:07:42;100320.06;;;19.64;44.13
47154;BME280;32907;41.412;2.164;2023-03-18T07:10:20;100305.50;;;19.54;43.96
47154;BME280;32907;41.412;2.164;2023-03-18T07:12:50;100331.41;;;19.71;44.15
47154;BME280;32907;41.412;2.164;2023-03-18T07:15:20;100314.44;;;19.60;44.44
47154;BME280;32907;41.412;2.164;2023-03-18T07:17:54;100201.63;;;18.96;43.89
47154;BME280;32907;41.412;2.164;2023-03-18T07:20:21;100357.28;;;19.87;44.21
47154;BME280;32907;41.412;2.164;2023-03-18T07:22:50;100359.22;;;19.87;44.17
47154;BME280;32907;41.412;2.164;2023-03-18T07:25:19;100339.50;;;19.76;44.08
47154;BME280;32907;41.412;2.164;2023-03-18T07:27:49;100333.81;;;19.72;43.97
47154;BME280;32907;41.412;2.164;2023-03-18T07:30:18;100357.53;;;19.91;44.32
47154;BME280;32907;41.412;2.164;2023-03-18T07:32:46;100344.13;;;19.75;44.38
47154;BME280;32907;41.412;2.164;2023-03-18T07:35:14;100329.44;;;19.76;44.49
47154;BME280;32907;41.412;2.164;2023-03-18T07:37:42;100326.72;;;19.76;44.72
47154;BME280;32907;41.412;2.164;2023-03-18T07:40:11;100368.25;;;20.01;44.54
47154;BME280;32907;41.412;2.164;2023-03-18T07:42:40;100339.16;;;19.82;44.80
47154;BME280;32907;41.412;2.164;2023-03-18T07:45:08;100372.59;;;20.02;45.06
47154;BME280;32907;41.412;2.164;2023-03-18T07:47:37;100355.47;;;19.82;45.49
47154;BME280;32907;41.412;2.164;2023-03-18T07:50:06;100362.63;;;19.97;45.13
47154;BME280;32907;41.412;2.164;2023-03-18T07:52:35;100375.56;;;20.05;45.21
47154;BME280;32907;41.412;2.164;2023-03-18T07:55:04;100388.31;;;20.05;44.87
47154;BME280;32907;41.412;2.164;2023-03-18T07:57:32;100387.25;;;20.06;44.74
47154;BME280;32907;41.412;2.164;2023-03-18T08:00:00;100391.88;;;20.05;44.54
47154;BME280;32907;41.412;2.164;2023-03-18T08:02:39;100348.53;;;19.71;44.59
47154;BME280;32907;41.412;2.164;2023-03-18T08:05:08;100399.75;;;20.07;44.58
47154;BME280;32907;41.412;2.164;2023-03-18T08:07:36;100401.38;;;20.08;44.46
47154;BME280;32907;41.412;2.164;2023-03-18T08:10:05;100378.19;;;19.92;44.46
47154;BME280;32907;41.412;2.164;2023-03-18T08:12:33;100395.91;;;20.08;44.68
47154;BME280;32907;41.412;2.164;2023-03-18T08:15:19;100391.88;;;20.05;44.84
47154;BME280;32907;41.412;2.164;2023-03-18T08:17:48;100367.31;;;19.92;44.60
47154;BME280;32907;41.412;2.164;2023-03-18T08:20:19;100366.00;;;19.89;44.46
47154;BME280;32907;41.412;2.164;2023-03-18T08:22:48;100381.88;;;20.01;44.84
47154;BME280;32907;41.412;2.164;2023-03-18T08:25:16;100416.53;;;20.14;44.60
47154;BME280;32907;41.412;2.164;2023-03-18T08:27:44;100404.09;;;20.08;44.57
47154;BME280;32907;41.412;2.164;2023-03-18T08:30:13;100413.50;;;20.16;44.91
47154;BME280;32907;41.412;2.164;2023-03-18T08:32:43;100412.16;;;20.13;44.98
47154;BME280;32907;41.412;2.164;2023-03-18T08:35:12;100403.13;;;19.99;45.01
47154;BME280;32907;41.412;2.164;2023-03-18T08:37:41;100400.41;;;19.99;45.16
47154;BME280;32907;41.412;2.164;2023-03-18T08:40:09;100398.25;;;19.96;45.42
47154;BME280;32907;41.412;2.164;2023-03-18T08:42:38;100377.69;;;19.90;45.37
47154;BME280;32907;41.412;2.164;2023-03-18T08:45:06;100402.97;;;20.09;45.70
47154;BME280;32907;41.412;2.164;2023-03-18T08:47:35;100399.44;;;20.08;45.69
47154;BME280;32907;41.412;2.164;2023-03-18T08:50:04;100333.31;;;19.70;46.13
47154;BME280;32907;41.412;2.164;2023-03-18T08:52:32;100406.66;;;20.18;46.37
47154;BME280;32907;41.412;2.164;2023-03-18T08:55:00;100414.31;;;20.16;46.46
47154;BME280;32907;41.412;2.164;2023-03-18T08:57:28;100373.78;;;19.96;46.30
47154;BME280;32907;41.412;2.164;2023-03-18T08:59:56;100407.25;;;20.15;46.39
47154;BME280;32907;41.412;2.164;2023-03-18T09:02:24;100408.06;;;20.16;46.51
47154;BME280;32907;41.412;2.164;2023-03-18T09:04:53;100430.72;;;20.30;46.57
47154;BME280;32907;41.412;2.164;2023-03-18T09:07:22;100371.28;;;19.99;46.94
47154;BME280;32907;41.412;2.164;2023-03-18T09:09:50;100409.63;;;20.22;46.83
47154;BME280;32907;41.412;2.164;2023-03-18T09:12:18;100420.84;;;20.34;47.15
47154;BME280;32907;41.412;2.164;2023-03-18T09:14:47;100425.19;;;20.35;47.48
47154;BME280;32907;41.412;2.164;2023-03-18T09:17:15;100367.66;;;20.04;47.64
47154;BME280;32907;41.412;2.164;2023-03-18T09:19:43;100417.25;;;20.38;47.84
47154;BME280;32907;41.412;2.164;2023-03-18T09:22:11;100420.19;;;20.42;47.78
47154;BME280;32907;41.412;2.164;2023-03-18T09:24:39;100410.69;;;20.39;47.78
47154;BME280;32907;41.412;2.164;2023-03-18T09:27:08;100408.53;;;20.36;47.84
47154;BME280;32907;41.412;2.164;2023-03-18T09:29:36;100436.19;;;20.49;47.55
47154;BME280;32907;41.412;2.164;2023-03-18T09:32:06;100430.81;;;20.44;47.37
47154;BME280;32907;41.412;2.164;2023-03-18T09:34:35;100444.34;;;20.49;47.45
47154;BME280;32907;41.412;2.164;2023-03-18T09:37:04;100387.16;;;20.11;46.91
47154;BME280;32907;41.412;2.164;2023-03-18T09:39:32;100414.75;;;20.23;47.35
47154;BME280;32907;41.412;2.164;2023-03-18T09:44:33;100435.13;;;20.45;47.26
47154;BME280;32907;41.412;2.164;2023-03-18T09:50:08;100437.28;;;20.48;47.00
47154;BME280;32907;41.412;2.164;2023-03-18T09:52:45;100438.91;;;20.49;46.90
47154;BME280;32907;41.412;2.164;2023-03-18T09:55:24;100428.34;;;20.42;46.52
47154;BME280;32907;41.412;2.164;2023-03-18T09:57:57;100411.38;;;20.31;46.76
47154;BME280;32907;41.412;2.164;2023-03-18T10:00:35;100437.78;;;20.50;46.35
47154;BME280;32907;41.412;2.164;2023-03-18T10:05:52;100453.63;;;20.48;46.57
47154;BME280;32907;41.412;2.164;2023-03-18T10:11:31;100355.47;;;19.82;45.83
47154;BME280;32907;41.412;2.164;2023-03-18T10:16:43;100442.22;;;20.46;46.27
47154;BME280;32907;41.412;2.164;2023-03-18T10:19:15;100443.31;;;20.45;46.02
47154;BME280;32907;41.412;2.164;2023-03-18T10:24:49;100447.38;;;20.47;46.36
47154;BME280;32907;41.412;2.164;2023-03-18T10:27:25;100414.16;;;20.26;46.75
47154;BME280;32907;41.412;2.164;2023-03-18T10:35:51;100441.03;;;20.52;46.04
47154;BME280;32907;41.412;2.164;2023-03-18T10:38:28;100443.75;;;20.52;46.60
47154;BME280;32907;41.412;2.164;2023-03-18T10:41:00;100431.25;;;20.51;46.46
47154;BME280;32907;41.412;2.164;2023-03-18T10:43:30;100445.09;;;20.54;46.07
47154;BME280;32907;41.412;2.164;2023-03-18T10:46:05;100437.72;;;20.55;45.67
47154;BME280;32907;41.412;2.164;2023-03-18T10:48:37;100437.19;;;20.53;45.72
47154;BME280;32907;41.412;2.164;2023-03-18T10:56:36;100443.75;;;20.52;46.14
47154;BME280;32907;41.412;2.164;2023-03-18T10:59:10;100447.00;;;20.54;46.39
47154;BME280;32907;41.412;2.164;2023-03-18T11:01:44;100436.13;;;20.54;46.28
47154;BME280;32907;41.412;2.164;2023-03-18T11:04:15;100432.03;;;20.51;45.87
47154;BME280;32907;41.412;2.164;2023-03-18T11:06:48;100424.19;;;20.50;47.19
47154;BME280;32907;41.412;2.164;2023-03-18T11:09:20;100374.41;;;20.25;47.20
47154;BME280;32907;41.412;2.164;2023-03-18T11:11:55;100427.03;;;20.58;46.40
47154;BME280;32907;41.412;2.164;2023-03-18T11:14:30;100435.63;;;20.65;46.46
47154;BME280;32907;41.412;2.164;2023-03-18T11:17:04;100426.84;;;20.55;46.16
47154;BME280;32907;41.412;2.164;2023-03-18T11:19:36;100442.50;;;20.63;46.38
47154;BME280;32907;41.412;2.164;2023-03-18T11:24:37;100428.81;;;20.49;46.49
47154;BME280;32907;41.412;2.164;2023-03-18T11:29:43;100432.34;;;20.31;46.31
47154;BME280;32907;41.412;2.164;2023-03-18T11:32:30;100406.22;;;20.11;47.25
47154;BME280;32907;41.412;2.164;2023-03-18T11:35:01;100449.41;;;20.36;46.75
47154;BME280;32907;41.412;2.164;2023-03-18T11:42:42;100445.88;;;20.17;47.26
47154;BME280;32907;41.412;2.164;2023-03-18T11:45:51;100453.81;;;20.32;47.15
47154;BME280;32907;41.412;2.164;2023-03-18T11:48:40;100443.59;;;20.24;47.29
47154;BME280;32907;41.412;2.164;2023-03-18T11:51:32;100446.47;;;20.33;47.03
47154;BME280;32907;41.412;2.164;2023-03-18T11:57:18;100428.81;;;20.30;46.90
47154;BME280;32907;41.412;2.164;2023-03-18T12:08:46;100365.06;;;20.12;47.59
47154;BME280;32907;41.412;2.164;2023-03-18T12:14:28;100411.16;;;20.47;47.38
47154;BME280;32907;41.412;2.164;2023-03-18T12:49:40;100335.47;;;20.90;47.55
47154;BME280;32907;41.412;2.164;2023-03-18T12:54:57;100323.16;;;20.92;47.55
47154;BME280;32907;41.412;2.164;2023-03-18T12:57:45;100302.16;;;20.79;47.13
47154;BME280;32907;41.412;2.164;2023-03-18T13:00:20;100319.13;;;20.90;46.60
47154;BME280;32907;41.412;2.164;2023-03-18T13:17:38;100279.72;;;20.68;46.63
47154;BME280;32907;41.412;2.164;2023-03-18T13:20:29;100297.22;;;20.81;46.35
47154;BME280;32907;41.412;2.164;2023-03-18T13:28:39;100304.88;;;20.79;46.16
47154;BME280;32907;41.412;2.164;2023-03-18T13:37:16;100289.25;;;20.71;45.76
47154;BME280;32907;41.412;2.164;2023-03-18T13:42:37;100277.53;;;20.71;45.65
47154;BME280;32907;41.412;2.164;2023-03-18T13:47:45;100281.94;;;20.66;45.84
47154;BME280;32907;41.412;2.164;2023-03-18T13:52:47;100255.66;;;20.43;45.32
47154;BME280;32907;41.412;2.164;2023-03-18T13:55:26;100280.72;;;20.59;45.06
47154;BME280;32907;41.412;2.164;2023-03-18T13:58:21;100287.09;;;20.68;45.32
47154;BME280;32907;41.412;2.164;2023-03-18T14:03:26;100296.50;;;20.62;45.05
47154;BME280;32907;41.412;2.164;2023-03-18T14:16:16;100295.47;;;20.58;44.77
47154;BME280;32907;41.412;2.164;2023-03-18T14:19:15;100266.84;;;20.42;44.72
47154;BME280;32907;41.412;2.164;2023-03-18T14:21:50;100296.28;;;20.58;45.27
47154;BME280;32907;41.412;2.164;2023-03-18T14:24:24;100231.22;;;20.24;45.32
47154;BME280;32907;41.412;2.164;2023-03-18T14:29:45;100286.19;;;20.59;45.20
47154;BME280;32907;41.412;2.164;2023-03-18T14:35:50;100278.50;;;20.61;45.49
47154;BME280;32907;41.412;2.164;2023-03-18T14:38:45;100264.59;;;20.49;45.76
47154;BME280;32907;41.412;2.164;2023-03-18T14:41:28;100236.28;;;20.31;45.86
47154;BME280;32907;41.412;2.164;2023-03-18T14:44:20;100282.34;;;20.60;45.67
47154;BME280;32907;41.412;2.164;2023-03-18T14:46:55;100281.03;;;20.57;45.84
47154;BME280;32907;41.412;2.164;2023-03-18T14:52:01;100286.97;;;20.59;46.46
47154;BME280;32907;41.412;2.164;2023-03-18T14:54:40;100282.66;;;20.58;46.29
47154;BME280;32907;41.412;2.164;2023-03-18T14:57:09;100284.56;;;20.58;45.95
47154;BME280;32907;41.412;2.164;2023-03-18T14:59:37;100280.03;;;20.53;46.26
47154;BME280;32907;41.412;2.164;2023-03-18T15:02:08;100238.72;;;20.32;45.97
47154;BME280;32907;41.412;2.164;2023-03-18T15:04:49;100264.59;;;20.49;45.87
47154;BME280;32907;41.412;2.164;2023-03-18T15:07:23;100266.69;;;20.52;45.72
47154;BME280;32907;41.412;2.164;2023-03-18T15:09:53;100262.16;;;20.47;46.20
47154;BME280;32907;41.412;2.164;2023-03-18T15:12:26;100228.50;;;20.24;46.13
47154;BME280;32907;41.412;2.164;2023-03-18T15:14:55;100205.81;;;20.15;46.06
47154;BME280;32907;41.412;2.164;2023-03-18T15:17:24;100274.28;;;20.55;46.01
47154;BME280;32907;41.412;2.164;2023-03-18T15:19:58;100199.44;;;20.06;45.94
47154;BME280;32907;41.412;2.164;2023-03-18T15:22:30;100269.94;;;20.54;46.17
47154;BME280;32907;41.412;2.164;2023-03-18T15:25:04;100220.34;;;20.24;46.07
47154;BME280;32907;41.412;2.164;2023-03-18T15:27:35;100265.00;;;20.56;46.20
47154;BME280;32907;41.412;2.164;2023-03-18T15:30:05;100260.34;;;20.56;45.97
47154;BME280;32907;41.412;2.164;2023-03-18T15:32:46;100248.84;;;20.46;46.13
47154;BME280;32907;41.412;2.164;2023-03-18T15:35:23;100225.00;;;20.37;46.58
47154;BME280;32907;41.412;2.164;2023-03-18T15:40:48;100241.38;;;20.51;46.30
47154;BME280;32907;41.412;2.164;2023-03-18T15:43:41;100259.84;;;20.68;46.13
47154;BME280;32907;41.412;2.164;2023-03-18T15:46:16;100257.94;;;20.68;45.42
47154;BME280;32907;41.412;2.164;2023-03-18T15:48:48;100255.22;;;20.68;45.48
47154;BME280;32907;41.412;2.164;2023-03-18T15:53:57;100238.97;;;20.50;45.15